sensor_id;sensor_type;location;lat;lon;timestamp;temperature;humidity
64997;SHT31;51545;51.568;6.998;2023-06-19T00:00:06;23.64;63.59
64997;SHT31;51545;51.568;6.998;2023-06-19T00:02:38;23.47;64.19
64997;SHT31;51545;51.568;6.998;2023-06-19T00:05:04;23.50;64.81
64997;SHT31;51545;51.568;6.998;2023-06-19T00:07:30;23.42;64.68
64997;SHT31;51545;51.568;6.998;2023-06-19T00:09:55;23.33;64.82
64997;SHT31;51545;51.568;6.998;2023-06-19T00:12:20;23.25;65.30
64997;SHT31;51545;51.568;6.998;2023-06-19T00:14:46;23.30;63.74
64997;SHT31;51545;51.568;6.998;2023-06-19T00:17:12;23.49;63.54
64997;SHT31;51545;51.568;6.998;2023-06-19T00:19:41;23.55;63.66
64997;SHT31;51545;51.568;6.998;2023-06-19T00:22:07;23.47;64.14
64997;SHT31;51545;51.568;6.998;2023-06-19T00:24:33;23.39;64.73
64997;SHT31;51545;51.568;6.998;2023-06-19T00:26:58;23.37;65.63
64997;SHT31;51545;51.568;6.998;2023-06-19T00:29:28;23.15;66.22
64997;SHT31;51545;51.568;6.998;2023-06-19T00:31:54;23.01;66.20
64997;SHT31;51545;51.568;6.998;2023-06-19T00:34:20;22.88;66.96
64997;SHT31;51545;51.568;6.998;2023-06-19T00:36:45;22.63;67.41
64997;SHT31;51545;51.568;6.998;2023-06-19T00:39:11;22.44;68.55
64997;SHT31;51545;51.568;6.998;2023-06-19T00:41:37;22.27;68.58
64997;SHT31;51545;51.568;6.998;2023-06-19T00:44:04;22.29;69.08
64997;SHT31;51545;51.568;6.998;2023-06-19T00:46:30;22.29;69.04
64997;SHT31;51545;51.568;6.998;2023-06-19T00:48:56;22.16;68.75
64997;SHT31;51545;51.568;6.998;2023-06-19T00:51:22;22.22;68.34
64997;SHT31;51545;51.568;6.998;2023-06-19T00:53:48;22.41;67.44
64997;SHT31;51545;51.568;6.998;2023-06-19T00:56:13;22.53;66.96
64997;SHT31;51545;51.568;6.998;2023-06-19T00:58:40;22.47;67.37
64997;SHT31;51545;51.568;6.998;2023-06-19T01:01:06;22.25;67.88
64997;SHT31;51545;51.568;6.998;2023-06-19T01:03:31;22.09;69.21
64997;SHT31;51545;51.568;6.998;2023-06-19T01:05:56;22.13;69.76
64997;SHT31;51545;51.568;6.998;2023-06-19T01:11:15;22.10;69.44
64997;SHT31;51545;51.568;6.998;2023-06-19T01:13:57;21.97;70.97
64997;SHT31;51545;51.568;6.998;2023-06-19T01:16:25;21.99;71.14
64997;SHT31;51545;51.568;6.998;2023-06-19T01:18:52;21.99;71.00
64997;SHT31;51545;51.568;6.998;2023-06-19T01:21:18;21.77;70.72
64997;SHT31;51545;51.568;6.998;2023-06-19T01:23:44;21.70;71.62
64997;SHT31;51545;51.568;6.998;2023-06-19T01:26:10;21.55;71.52
64997;SHT31;51545;51.568;6.998;2023-06-19T01:28:37;21.53;72.80
64997;SHT31;51545;51.568;6.998;2023-06-19T01:31:08;21.50;72.41
64997;SHT31;51545;51.568;6.998;2023-06-19T01:33:43;21.24;72.31
64997;SHT31;51545;51.568;6.998;2023-06-19T01:36:10;21.15;73.01
64997;SHT31;51545;51.568;6.998;2023-06-19T01:38:36;21.09;73.45
64997;SHT31;51545;51.568;6.998;2023-06-19T01:41:03;21.10;73.53
64997;SHT31;51545;51.568;6.998;2023-06-19T01:43:31;21.05;73.50
64997;SHT31;51545;51.568;6.998;2023-06-19T01:45:58;20.99;74.00
64997;SHT31;51545;51.568;6.998;2023-06-19T01:48:24;20.91;73.92
64997;SHT31;51545;51.568;6.998;2023-06-19T01:50:49;20.85;73.86
64997;SHT31;51545;51.568;6.998;2023-06-19T01:53:15;20.68;74.63
64997;SHT31;51545;51.568;6.998;2023-06-19T01:55:41;20.70;75.05
64997;SHT31;51545;51.568;6.998;2023-06-19T01:58:07;20.58;75.43
64997;SHT31;51545;51.568;6.998;2023-06-19T02:00:32;20.55;74.84
64997;SHT31;51545;51.568;6.998;2023-06-19T02:03:02;20.34;75.90
64997;SHT31;51545;51.568;6.998;2023-06-19T02:05:29;20.29;75.94
64997;SHT31;51545;51.568;6.998;2023-06-19T02:07:55;20.16;76.53
64997;SHT31;51545;51.568;6.998;2023-06-19T02:10:21;20.12;76.75
64997;SHT31;51545;51.568;6.998;2023-06-19T02:12:46;20.19;76.85
64997;SHT31;51545;51.568;6.998;2023-06-19T02:15:12;20.25;76.58
64997;SHT31;51545;51.568;6.998;2023-06-19T02:17:37;20.20;76.59
64997;SHT31;51545;51.568;6.998;2023-06-19T02:20:04;20.26;77.00
64997;SHT31;51545;51.568;6.998;2023-06-19T02:22:39;20.16;76.74
64997;SHT31;51545;51.568;6.998;2023-06-19T02:25:06;20.25;76.62
64997;SHT31;51545;51.568;6.998;2023-06-19T02:27:32;20.19;76.54
64997;SHT31;51545;51.568;6.998;2023-06-19T02:29:57;20.43;75.53
64997;SHT31;51545;51.568;6.998;2023-06-19T02:32:23;20.54;75.16
64997;SHT31;51545;51.568;6.998;2023-06-19T02:34:48;20.61;74.45
64997;SHT31;51545;51.568;6.998;2023-06-19T02:37:14;20.96;72.66
64997;SHT31;51545;51.568;6.998;2023-06-19T02:39:39;21.02;73.00
64997;SHT31;51545;51.568;6.998;2023-06-19T02:42:04;20.92;73.39
64997;SHT31;51545;51.568;6.998;2023-06-19T02:44:31;20.85;74.01
64997;SHT31;51545;51.568;6.998;2023-06-19T02:46:56;20.82;73.28
64997;SHT31;51545;51.568;6.998;2023-06-19T02:49:22;21.03;72.48
64997;SHT31;51545;51.568;6.998;2023-06-19T02:51:47;21.13;72.15
64997;SHT31;51545;51.568;6.998;2023-06-19T02:54:13;21.18;71.86
64997;SHT31;51545;51.568;6.998;2023-06-19T02:56:38;21.26;71.86
64997;SHT31;51545;51.568;6.998;2023-06-19T02:59:04;21.27;71.53
64997;SHT31;51545;51.568;6.998;2023-06-19T03:01:29;21.35;71.46
64997;SHT31;51545;51.568;6.998;2023-06-19T03:03:55;21.37;71.36
64997;SHT31;51545;51.568;6.998;2023-06-19T03:06:20;21.47;71.27
64997;SHT31;51545;51.568;6.998;2023-06-19T03:08:46;21.50;71.26
64997;SHT31;51545;51.568;6.998;2023-06-19T03:11:11;21.55;71.10
64997;SHT31;51545;51.568;6.998;2023-06-19T03:13:47;21.65;70.90
64997;SHT31;51545;51.568;6.998;2023-06-19T03:16:15;21.68;70.92
64997;SHT31;51545;51.568;6.998;2023-06-19T03:18:40;21.72;71.10
64997;SHT31;51545;51.568;6.998;2023-06-19T03:21:07;21.70;71.05
64997;SHT31;51545;51.568;6.998;2023-06-19T03:23:32;21.72;71.13
64997;SHT31;51545;51.568;6.998;2023-06-19T03:25:58;21.71;71.33
64997;SHT31;51545;51.568;6.998;2023-06-19T03:28:23;21.81;71.34
64997;SHT31;51545;51.568;6.998;2023-06-19T03:30:49;21.85;71.51
64997;SHT31;51545;51.568;6.998;2023-06-19T03:33:15;21.81;71.96
64997;SHT31;51545;51.568;6.998;2023-06-19T03:35:40;21.78;72.21
64997;SHT31;51545;51.568;6.998;2023-06-19T03:38:06;21.78;72.36
64997;SHT31;51545;51.568;6.998;2023-06-19T03:40:31;21.78;72.48
64997;SHT31;51545;51.568;6.998;2023-06-19T03:42:57;21.78;72.65
64997;SHT31;51545;51.568;6.998;2023-06-19T03:45:22;21.78;72.76
64997;SHT31;51545;51.568;6.998;2023-06-19T03:47:48;21.72;72.79
64997;SHT31;51545;51.568;6.998;2023-06-19T03:50:13;21.78;72.75
64997;SHT31;51545;51.568;6.998;2023-06-19T03:52:39;21.79;72.94
64997;SHT31;51545;51.568;6.998;2023-06-19T03:55:04;21.77;72.98
64997;SHT31;51545;51.568;6.998;2023-06-19T03:57:30;21.77;72.95
64997;SHT31;51545;51.568;6.998;2023-06-19T03:59:56;21.77;73.11
64997;SHT31;51545;51.568;6.998;2023-06-19T04:02:21;21.72;73.22
64997;SHT31;51545;51.568;6.998;2023-06-19T04:04:47;21.72;73.29
64997;SHT31;51545;51.568;6.998;2023-06-19T04:07:13;21.64;73.58
64997;SHT31;51545;51.568;6.998;2023-06-19T04:09:38;21.57;74.07
64997;SHT31;51545;51.568;6.998;2023-06-19T04:12:04;21.47;74.49
64997;SHT31;51545;51.568;6.998;2023-06-19T04:14:30;21.35;75.10
64997;SHT31;51545;51.568;6.998;2023-06-19T04:16:56;21.27;75.42
64997;SHT31;51545;51.568;6.998;2023-06-19T04:19:21;21.24;75.61
64997;SHT31;51545;51.568;6.998;2023-06-19T04:21:47;21.22;75.85
64997;SHT31;51545;51.568;6.998;2023-06-19T04:24:12;21.18;76.09
64997;SHT31;51545;51.568;6.998;2023-06-19T04:26:38;21.15;76.37
64997;SHT31;51545;51.568;6.998;2023-06-19T04:29:03;21.05;76.56
64997;SHT31;51545;51.568;6.998;2023-06-19T04:31:31;21.19;76.05
64997;SHT31;51545;51.568;6.998;2023-06-19T04:33:57;20.98;76.92
64997;SHT31;51545;51.568;6.998;2023-06-19T04:36:22;20.96;77.00
64997;SHT31;51545;51.568;6.998;2023-06-19T04:38:48;20.90;77.31
64997;SHT31;51545;51.568;6.998;2023-06-19T04:41:17;20.91;77.30
64997;SHT31;51545;51.568;6.998;2023-06-19T04:43:43;20.95;77.37
64997;SHT31;51545;51.568;6.998;2023-06-19T04:46:08;20.95;77.19
64997;SHT31;51545;51.568;6.998;2023-06-19T04:48:34;20.94;77.38
64997;SHT31;51545;51.568;6.998;2023-06-19T04:51:02;20.85;77.61
64997;SHT31;51545;51.568;6.998;2023-06-19T04:53:28;20.87;77.53
64997;SHT31;51545;51.568;6.998;2023-06-19T04:55:53;20.78;77.89
64997;SHT31;51545;51.568;6.998;2023-06-19T04:58:20;20.74;77.95
64997;SHT31;51545;51.568;6.998;2023-06-19T05:00:47;20.71;78.36
64997;SHT31;51545;51.568;6.998;2023-06-19T05:03:16;20.72;78.14
64997;SHT31;51545;51.568;6.998;2023-06-19T05:05:43;20.71;78.17
64997;SHT31;51545;51.568;6.998;2023-06-19T05:08:09;20.70;78.48
64997;SHT31;51545;51.568;6.998;2023-06-19T05:10:34;20.63;78.53
64997;SHT31;51545;51.568;6.998;2023-06-19T05:13:00;20.57;78.83
64997;SHT31;51545;51.568;6.998;2023-06-19T05:15:27;20.55;79.00
64997;SHT31;51545;51.568;6.998;2023-06-19T05:17:53;20.67;78.78
64997;SHT31;51545;51.568;6.998;2023-06-19T05:20:18;20.64;79.04
64997;SHT31;51545;51.568;6.998;2023-06-19T05:22:45;20.61;79.23
64997;SHT31;51545;51.568;6.998;2023-06-19T05:25:10;20.74;78.70
64997;SHT31;51545;51.568;6.998;2023-06-19T05:27:36;20.80;78.96
64997;SHT31;51545;51.568;6.998;2023-06-19T05:30:01;21.03;78.26
64997;SHT31;51545;51.568;6.998;2023-06-19T05:32:27;21.05;78.09
64997;SHT31;51545;51.568;6.998;2023-06-19T05:34:53;21.30;76.58
64997;SHT31;51545;51.568;6.998;2023-06-19T05:37:18;20.92;78.22
64997;SHT31;51545;51.568;6.998;2023-06-19T05:39:44;21.26;76.67
64997;SHT31;51545;51.568;6.998;2023-06-19T05:42:09;21.09;77.80
64997;SHT31;51545;51.568;6.998;2023-06-19T05:44:34;21.49;76.55
64997;SHT31;51545;51.568;6.998;2023-06-19T05:47:00;21.46;77.24
64997;SHT31;51545;51.568;6.998;2023-06-19T05:49:26;21.51;76.55
64997;SHT31;51545;51.568;6.998;2023-06-19T05:51:51;21.44;76.65
64997;SHT31;51545;51.568;6.998;2023-06-19T05:54:16;21.58;75.95
64997;SHT31;51545;51.568;6.998;2023-06-19T05:56:42;21.54;76.38
64997;SHT31;51545;51.568;6.998;2023-06-19T05:59:08;21.42;76.94
64997;SHT31;51545;51.568;6.998;2023-06-19T06:01:34;21.23;77.19
64997;SHT31;51545;51.568;6.998;2023-06-19T06:03:59;21.51;76.66
64997;SHT31;51545;51.568;6.998;2023-06-19T06:06:26;21.18;78.41
64997;SHT31;51545;51.568;6.998;2023-06-19T06:08:52;21.06;78.49
64997;SHT31;51545;51.568;6.998;2023-06-19T06:11:19;21.22;78.03
64997;SHT31;51545;51.568;6.998;2023-06-19T06:13:45;21.20;78.14
64997;SHT31;51545;51.568;6.998;2023-06-19T06:16:11;21.10;78.42
64997;SHT31;51545;51.568;6.998;2023-06-19T06:18:36;21.29;77.84
64997;SHT31;51545;51.568;6.998;2023-06-19T06:21:02;21.16;78.04
64997;SHT31;51545;51.568;6.998;2023-06-19T06:23:27;21.13;78.68
64997;SHT31;51545;51.568;6.998;2023-06-19T06:25:53;21.27;77.48
64997;SHT31;51545;51.568;6.998;2023-06-19T06:28:26;21.16;78.13
64997;SHT31;51545;51.568;6.998;2023-06-19T06:30:51;21.02;78.82
64997;SHT31;51545;51.568;6.998;2023-06-19T06:33:17;21.16;78.07
64997;SHT31;51545;51.568;6.998;2023-06-19T06:35:42;21.01;78.86
64997;SHT31;51545;51.568;6.998;2023-06-19T06:38:09;20.98;78.76
64997;SHT31;51545;51.568;6.998;2023-06-19T06:40:34;21.15;78.13
64997;SHT31;51545;51.568;6.998;2023-06-19T06:43:00;21.06;78.57
64997;SHT31;51545;51.568;6.998;2023-06-19T06:45:25;21.10;78.31
64997;SHT31;51545;51.568;6.998;2023-06-19T06:47:51;20.77;79.64
64997;SHT31;51545;51.568;6.998;2023-06-19T06:50:16;21.03;78.93
64997;SHT31;51545;51.568;6.998;2023-06-19T06:52:42;20.96;79.29
64997;SHT31;51545;51.568;6.998;2023-06-19T06:55:07;21.09;79.22
64997;SHT31;51545;51.568;6.998;2023-06-19T06:57:33;21.19;79.45
64997;SHT31;51545;51.568;6.998;2023-06-19T06:59:59;20.94;79.38
64997;SHT31;51545;51.568;6.998;2023-06-19T07:02:24;21.06;79.54
64997;SHT31;51545;51.568;6.998;2023-06-19T07:04:50;21.01;79.79
64997;SHT31;51545;51.568;6.998;2023-06-19T07:07:15;21.01;79.55
64997;SHT31;51545;51.568;6.998;2023-06-19T07:09:40;21.13;79.59
64997;SHT31;51545;51.568;6.998;2023-06-19T07:12:06;21.13;79.51
64997;SHT31;51545;51.568;6.998;2023-06-19T07:14:32;20.96;79.82
64997;SHT31;51545;51.568;6.998;2023-06-19T07:16:58;20.99;79.64
64997;SHT31;51545;51.568;6.998;2023-06-19T07:19:23;20.95;79.84
64997;SHT31;51545;51.568;6.998;2023-06-19T07:21:52;21.08;79.91
64997;SHT31;51545;51.568;6.998;2023-06-19T07:24:17;21.02;79.68
64997;SHT31;51545;51.568;6.998;2023-06-19T07:26:43;21.01;79.89
64997;SHT31;51545;51.568;6.998;2023-06-19T07:29:11;21.01;79.88
64997;SHT31;51545;51.568;6.998;2023-06-19T07:31:36;21.12;80.00
64997;SHT31;51545;51.568;6.998;2023-06-19T07:34:02;21.05;79.88
64997;SHT31;51545;51.568;6.998;2023-06-19T07:36:27;21.27;79.90
64997;SHT31;51545;51.568;6.998;2023-06-19T07:38:53;21.24;79.06
64997;SHT31;51545;51.568;6.998;2023-06-19T07:41:18;21.18;79.95
64997;SHT31;51545;51.568;6.998;2023-06-19T07:43:44;21.12;80.21
64997;SHT31;51545;51.568;6.998;2023-06-19T07:46:09;21.13;80.58
64997;SHT31;51545;51.568;6.998;2023-06-19T07:48:35;20.95;81.71
64997;SHT31;51545;51.568;6.998;2023-06-19T07:51:01;20.36;85.31
64997;SHT31;51545;51.568;6.998;2023-06-19T07:53:26;20.54;85.51
64997;SHT31;51545;51.568;6.998;2023-06-19T07:55:52;20.80;85.13
64997;SHT31;51545;51.568;6.998;2023-06-19T07:58:17;20.58;84.75
64997;SHT31;51545;51.568;6.998;2023-06-19T08:00:43;20.51;84.50
64997;SHT31;51545;51.568;6.998;2023-06-19T08:03:08;20.87;84.15
64997;SHT31;51545;51.568;6.998;2023-06-19T08:05:34;21.15;83.28
64997;SHT31;51545;51.568;6.998;2023-06-19T08:07:59;21.15;82.49
64997;SHT31;51545;51.568;6.998;2023-06-19T08:10:26;21.23;82.50
64997;SHT31;51545;51.568;6.998;2023-06-19T08:12:52;21.49;82.06
64997;SHT31;51545;51.568;6.998;2023-06-19T08:15:17;21.74;80.87
64997;SHT31;51545;51.568;6.998;2023-06-19T08:17:43;21.46;81.04
64997;SHT31;51545;51.568;6.998;2023-06-19T08:20:08;21.50;80.69
64997;SHT31;51545;51.568;6.998;2023-06-19T08:22:34;21.49;80.67
64997;SHT31;51545;51.568;6.998;2023-06-19T08:25:00;21.77;80.15
64997;SHT31;51545;51.568;6.998;2023-06-19T08:27:28;21.47;79.41
64997;SHT31;51545;51.568;6.998;2023-06-19T08:29:53;21.70;79.00
64997;SHT31;51545;51.568;6.998;2023-06-19T08:32:19;21.87;78.51
64997;SHT31;51545;51.568;6.998;2023-06-19T08:34:44;21.77;78.31
64997;SHT31;51545;51.568;6.998;2023-06-19T08:37:10;22.02;78.44
64997;SHT31;51545;51.568;6.998;2023-06-19T08:39:35;22.19;77.33
64997;SHT31;51545;51.568;6.998;2023-06-19T08:42:05;22.40;76.42
64997;SHT31;51545;51.568;6.998;2023-06-19T08:44:33;22.65;76.00
64997;SHT31;51545;51.568;6.998;2023-06-19T08:46:59;22.77;75.07
64997;SHT31;51545;51.568;6.998;2023-06-19T08:49:25;22.71;74.97
64997;SHT31;51545;51.568;6.998;2023-06-19T08:51:50;22.81;74.95
64997;SHT31;51545;51.568;6.998;2023-06-19T08:54:17;23.11;73.84
64997;SHT31;51545;51.568;6.998;2023-06-19T08:56:42;22.96;74.02
64997;SHT31;51545;51.568;6.998;2023-06-19T08:59:09;22.59;74.00
64997;SHT31;51545;51.568;6.998;2023-06-19T09:01:36;22.50;74.45
64997;SHT31;51545;51.568;6.998;2023-06-19T09:04:07;22.44;74.27
64997;SHT31;51545;51.568;6.998;2023-06-19T09:06:44;22.26;74.31
64997;SHT31;51545;51.568;6.998;2023-06-19T09:09:17;22.43;74.50
64997;SHT31;51545;51.568;6.998;2023-06-19T09:14:37;22.80;73.19
64997;SHT31;51545;51.568;6.998;2023-06-19T09:17:04;23.06;72.52
64997;SHT31;51545;51.568;6.998;2023-06-19T09:19:35;23.05;72.00
64997;SHT31;51545;51.568;6.998;2023-06-19T09:22:01;22.92;72.28
64997;SHT31;51545;51.568;6.998;2023-06-19T09:24:40;23.42;72.00
64997;SHT31;51545;51.568;6.998;2023-06-19T09:27:07;23.22;71.70
64997;SHT31;51545;51.568;6.998;2023-06-19T09:29:38;23.25;70.83
64997;SHT31;51545;51.568;6.998;2023-06-19T09:34:44;22.88;71.92
64997;SHT31;51545;51.568;6.998;2023-06-19T09:37:10;23.32;71.61
64997;SHT31;51545;51.568;6.998;2023-06-19T09:39:39;23.14;71.40
64997;SHT31;51545;51.568;6.998;2023-06-19T09:42:06;23.37;71.16
64997;SHT31;51545;51.568;6.998;2023-06-19T09:44:36;23.43;69.57
64997;SHT31;51545;51.568;6.998;2023-06-19T09:47:09;23.57;69.88
64997;SHT31;51545;51.568;6.998;2023-06-19T09:49:49;23.90;68.77
64997;SHT31;51545;51.568;6.998;2023-06-19T09:52:19;24.18;68.66
64997;SHT31;51545;51.568;6.998;2023-06-19T09:54:47;24.05;68.09
64997;SHT31;51545;51.568;6.998;2023-06-19T09:57:14;24.49;67.09
64997;SHT31;51545;51.568;6.998;2023-06-19T09:59:40;24.12;68.19
64997;SHT31;51545;51.568;6.998;2023-06-19T10:02:07;24.61;67.03
64997;SHT31;51545;51.568;6.998;2023-06-19T10:04:46;23.97;68.20
64997;SHT31;51545;51.568;6.998;2023-06-19T10:07:21;24.01;68.66
64997;SHT31;51545;51.568;6.998;2023-06-19T10:10:01;24.16;68.96
64997;SHT31;51545;51.568;6.998;2023-06-19T10:12:37;24.80;67.25
64997;SHT31;51545;51.568;6.998;2023-06-19T10:15:08;24.84;66.63
64997;SHT31;51545;51.568;6.998;2023-06-19T10:17:48;24.53;66.84
64997;SHT31;51545;51.568;6.998;2023-06-19T10:23:06;25.08;66.20
64997;SHT31;51545;51.568;6.998;2023-06-19T10:25:44;25.44;64.23
64997;SHT31;51545;51.568;6.998;2023-06-19T10:28:24;25.51;63.67
64997;SHT31;51545;51.568;6.998;2023-06-19T10:30:56;26.08;63.82
64997;SHT31;51545;51.568;6.998;2023-06-19T10:33:24;25.66;62.39
64997;SHT31;51545;51.568;6.998;2023-06-19T10:35:51;25.33;63.22
64997;SHT31;51545;51.568;6.998;2023-06-19T10:38:17;24.84;63.97
64997;SHT31;51545;51.568;6.998;2023-06-19T10:40:44;25.56;62.25
64997;SHT31;51545;51.568;6.998;2023-06-19T10:43:11;26.49;60.84
64997;SHT31;51545;51.568;6.998;2023-06-19T10:45:37;26.94;59.03
64997;SHT31;51545;51.568;6.998;2023-06-19T10:48:03;26.53;59.45
64997;SHT31;51545;51.568;6.998;2023-06-19T10:50:33;26.92;59.34
64997;SHT31;51545;51.568;6.998;2023-06-19T10:53:00;26.35;59.29
64997;SHT31;51545;51.568;6.998;2023-06-19T10:55:26;26.06;59.09
64997;SHT31;51545;51.568;6.998;2023-06-19T10:57:52;26.49;59.57
64997;SHT31;51545;51.568;6.998;2023-06-19T11:02:53;27.09;58.82
64997;SHT31;51545;51.568;6.998;2023-06-19T11:05:20;26.81;58.75
64997;SHT31;51545;51.568;6.998;2023-06-19T11:07:50;27.60;57.15
64997;SHT31;51545;51.568;6.998;2023-06-19T11:10:21;28.00;56.15
64997;SHT31;51545;51.568;6.998;2023-06-19T11:12:54;27.80;56.57
64997;SHT31;51545;51.568;6.998;2023-06-19T11:15:27;27.50;57.01
64997;SHT31;51545;51.568;6.998;2023-06-19T11:17:57;27.14;56.47
64997;SHT31;51545;51.568;6.998;2023-06-19T11:20:23;27.12;57.30
64997;SHT31;51545;51.568;6.998;2023-06-19T11:22:54;26.40;56.62
64997;SHT31;51545;51.568;6.998;2023-06-19T11:25:21;26.13;58.29
64997;SHT31;51545;51.568;6.998;2023-06-19T11:27:47;26.26;57.45
64997;SHT31;51545;51.568;6.998;2023-06-19T11:30:17;26.04;58.02
64997;SHT31;51545;51.568;6.998;2023-06-19T11:32:46;26.49;57.15
64997;SHT31;51545;51.568;6.998;2023-06-19T11:35:15;26.49;57.27
64997;SHT31;51545;51.568;6.998;2023-06-19T11:37:42;26.64;57.57
64997;SHT31;51545;51.568;6.998;2023-06-19T11:40:09;27.02;57.56
64997;SHT31;51545;51.568;6.998;2023-06-19T11:42:51;26.73;56.45
64997;SHT31;51545;51.568;6.998;2023-06-19T11:45:18;25.97;57.87
64997;SHT31;51545;51.568;6.998;2023-06-19T11:47:46;26.24;58.50
64997;SHT31;51545;51.568;6.998;2023-06-19T11:50:14;26.56;58.52
64997;SHT31;51545;51.568;6.998;2023-06-19T11:52:44;26.84;58.07
64997;SHT31;51545;51.568;6.998;2023-06-19T11:55:12;26.71;58.29
64997;SHT31;51545;51.568;6.998;2023-06-19T11:57:39;26.91;58.54
64997;SHT31;51545;51.568;6.998;2023-06-19T12:00:12;27.20;56.66
64997;SHT31;51545;51.568;6.998;2023-06-19T12:02:41;27.23;56.86
64997;SHT31;51545;51.568;6.998;2023-06-19T12:05:07;26.33;57.41
64997;SHT31;51545;51.568;6.998;2023-06-19T12:07:32;26.47;57.22
64997;SHT31;51545;51.568;6.998;2023-06-19T12:09:58;26.49;57.64
64997;SHT31;51545;51.568;6.998;2023-06-19T12:12:24;27.20;56.47
64997;SHT31;51545;51.568;6.998;2023-06-19T12:14:51;27.41;56.41
64997;SHT31;51545;51.568;6.998;2023-06-19T12:17:16;27.11;54.33
64997;SHT31;51545;51.568;6.998;2023-06-19T12:19:42;27.23;54.85
64997;SHT31;51545;51.568;6.998;2023-06-19T12:22:07;27.38;53.93
64997;SHT31;51545;51.568;6.998;2023-06-19T12:24:32;28.15;56.85
64997;SHT31;51545;51.568;6.998;2023-06-19T12:26:58;28.08;54.30
64997;SHT31;51545;51.568;6.998;2023-06-19T12:29:24;27.45;54.54
64997;SHT31;51545;51.568;6.998;2023-06-19T12:31:49;27.16;55.28
64997;SHT31;51545;51.568;6.998;2023-06-19T12:34:15;27.46;55.00
64997;SHT31;51545;51.568;6.998;2023-06-19T12:36:42;27.64;55.23
64997;SHT31;51545;51.568;6.998;2023-06-19T12:39:08;27.46;55.91
64997;SHT31;51545;51.568;6.998;2023-06-19T12:41:41;27.32;54.44
64997;SHT31;51545;51.568;6.998;2023-06-19T12:44:06;27.62;54.31
64997;SHT31;51545;51.568;6.998;2023-06-19T12:46:32;27.80;54.73
64997;SHT31;51545;51.568;6.998;2023-06-19T12:48:57;27.26;55.12
64997;SHT31;51545;51.568;6.998;2023-06-19T12:51:23;26.52;54.96
64997;SHT31;51545;51.568;6.998;2023-06-19T12:53:48;26.43;56.00
64997;SHT31;51545;51.568;6.998;2023-06-19T12:56:14;26.56;55.89
64997;SHT31;51545;51.568;6.998;2023-06-19T12:58:39;26.70;54.85
64997;SHT31;51545;51.568;6.998;2023-06-19T13:01:04;26.98;55.03
64997;SHT31;51545;51.568;6.998;2023-06-19T13:03:30;27.09;55.06
64997;SHT31;51545;51.568;6.998;2023-06-19T13:05:55;27.56;53.93
64997;SHT31;51545;51.568;6.998;2023-06-19T13:08:21;27.90;54.89
64997;SHT31;51545;51.568;6.998;2023-06-19T13:10:47;27.41;53.90
64997;SHT31;51545;51.568;6.998;2023-06-19T13:13:13;27.67;52.92
64997;SHT31;51545;51.568;6.998;2023-06-19T13:15:38;27.95;51.69
64997;SHT31;51545;51.568;6.998;2023-06-19T13:18:04;28.08;50.80
64997;SHT31;51545;51.568;6.998;2023-06-19T13:20:29;27.36;52.14
64997;SHT31;51545;51.568;6.998;2023-06-19T13:22:55;28.77;53.28
64997;SHT31;51545;51.568;6.998;2023-06-19T13:25:20;29.32;50.36
64997;SHT31;51545;51.568;6.998;2023-06-19T13:27:45;28.66;51.39
64997;SHT31;51545;51.568;6.998;2023-06-19T13:30:12;29.81;48.89
64997;SHT31;51545;51.568;6.998;2023-06-19T13:32:38;29.07;49.10
64997;SHT31;51545;51.568;6.998;2023-06-19T13:35:07;30.05;47.50
64997;SHT31;51545;51.568;6.998;2023-06-19T13:37:33;29.22;47.78
64997;SHT31;51545;51.568;6.998;2023-06-19T13:40:00;28.60;48.50
64997;SHT31;51545;51.568;6.998;2023-06-19T13:42:28;27.81;50.28
64997;SHT31;51545;51.568;6.998;2023-06-19T13:44:54;29.04;48.17
64997;SHT31;51545;51.568;6.998;2023-06-19T13:47:20;29.46;46.44
64997;SHT31;51545;51.568;6.998;2023-06-19T13:49:45;29.25;47.07
64997;SHT31;51545;51.568;6.998;2023-06-19T13:52:11;30.45;48.42
64997;SHT31;51545;51.568;6.998;2023-06-19T13:54:37;30.26;47.54
64997;SHT31;51545;51.568;6.998;2023-06-19T13:57:02;30.07;45.72
64997;SHT31;51545;51.568;6.998;2023-06-19T13:59:29;29.26;45.95
64997;SHT31;51545;51.568;6.998;2023-06-19T14:01:54;28.71;46.81
64997;SHT31;51545;51.568;6.998;2023-06-19T14:04:20;28.87;46.74
64997;SHT31;51545;51.568;6.998;2023-06-19T14:06:45;29.15;46.74
64997;SHT31;51545;51.568;6.998;2023-06-19T14:09:11;29.29;46.18
64997;SHT31;51545;51.568;6.998;2023-06-19T14:11:37;29.78;45.81
64997;SHT31;51545;51.568;6.998;2023-06-19T14:14:03;29.54;45.42
64997;SHT31;51545;51.568;6.998;2023-06-19T14:16:28;29.46;45.56
64997;SHT31;51545;51.568;6.998;2023-06-19T14:18:54;29.54;46.32
64997;SHT31;51545;51.568;6.998;2023-06-19T14:21:19;28.33;46.53
64997;SHT31;51545;51.568;6.998;2023-06-19T14:23:45;28.28;48.96
64997;SHT31;51545;51.568;6.998;2023-06-19T14:26:10;28.73;45.64
64997;SHT31;51545;51.568;6.998;2023-06-19T14:28:37;29.47;45.34
64997;SHT31;51545;51.568;6.998;2023-06-19T14:31:06;30.40;45.09
64997;SHT31;51545;51.568;6.998;2023-06-19T14:33:31;30.51;44.34
64997;SHT31;51545;51.568;6.998;2023-06-19T14:36:01;30.09;46.66
64997;SHT31;51545;51.568;6.998;2023-06-19T14:38:43;29.73;45.56
64997;SHT31;51545;51.568;6.998;2023-06-19T14:41:09;29.38;45.04
64997;SHT31;51545;51.568;6.998;2023-06-19T14:43:35;29.25;46.85
64997;SHT31;51545;51.568;6.998;2023-06-19T14:46:01;29.19;47.65
64997;SHT31;51545;51.568;6.998;2023-06-19T14:48:29;29.43;47.78
64997;SHT31;51545;51.568;6.998;2023-06-19T14:50:58;29.74;44.96
64997;SHT31;51545;51.568;6.998;2023-06-19T14:53:25;30.35;45.28
64997;SHT31;51545;51.568;6.998;2023-06-19T14:55:51;31.17;44.01
64997;SHT31;51545;51.568;6.998;2023-06-19T14:58:17;30.80;44.48
64997;SHT31;51545;51.568;6.998;2023-06-19T15:00:43;30.66;44.02
64997;SHT31;51545;51.568;6.998;2023-06-19T15:03:08;29.09;46.02
64997;SHT31;51545;51.568;6.998;2023-06-19T15:05:34;28.50;47.44
64997;SHT31;51545;51.568;6.998;2023-06-19T15:07:59;28.29;46.55
64997;SHT31;51545;51.568;6.998;2023-06-19T15:10:26;28.49;48.04
64997;SHT31;51545;51.568;6.998;2023-06-19T15:12:52;29.24;47.56
64997;SHT31;51545;51.568;6.998;2023-06-19T15:15:18;29.50;46.24
64997;SHT31;51545;51.568;6.998;2023-06-19T15:17:43;29.05;47.34
64997;SHT31;51545;51.568;6.998;2023-06-19T15:20:09;28.87;46.74
64997;SHT31;51545;51.568;6.998;2023-06-19T15:22:34;28.84;47.27
64997;SHT31;51545;51.568;6.998;2023-06-19T15:25:02;28.90;46.86
64997;SHT31;51545;51.568;6.998;2023-06-19T15:27:27;29.77;45.31
64997;SHT31;51545;51.568;6.998;2023-06-19T15:29:53;30.48;45.42
64997;SHT31;51545;51.568;6.998;2023-06-19T15:32:18;29.16;46.45
64997;SHT31;51545;51.568;6.998;2023-06-19T15:34:44;30.24;46.49
64997;SHT31;51545;51.568;6.998;2023-06-19T15:37:09;30.48;44.51
64997;SHT31;51545;51.568;6.998;2023-06-19T15:39:36;30.15;45.28